Latest Weather Observations for Fowlers Gap

IDN60801

Issued at 7:32 am EST Saturday 18 August 2018 (issued every 10 minutes, with the page automatically refreshed every 10 minutes)

About weather observations | Map of weather stations | Latest weather observations for NSW | Other Formats
Station Details ID: 046128 Name: FOWLERS GAP AWS Lat: -31.09 Lon: 141.70 Height: 181.0 m
Data from the previous 72 hours. | See also: Recent months at Fowlers Gap
Date/Time
EST
Temp
°C
App
Temp
°C
Dew
Point
°C
Rel
Hum
%
Delta-T
°C
Wind Press
QNH
hPa
Press
MSL
hPa
Rain since
9am
mm
Dir  Spd
km/h
Gust
km/h
Spd
kts
Gust
kts
18/07:30am 10.7 4.8 -2.0 41 4.9 WNW 19 24 10 13 1017.3 1017.3 0.0
18/07:00am 10.6 4.1 -2.4 40 5.0 NW 22 30 12 16 1016.6 1016.6 0.0
18/06:30am 11.0 5.4 -2.8 38 5.3 NW 17 24 9 13 1016.2 1016.2 0.0
18/06:00am 11.2 5.2 -2.9 37 5.4 NW 19 26 10 14 1015.9 1015.9 0.0
18/05:30am 11.5 5.3 -3.0 36 5.6 NW 20 30 11 16 1015.3 1015.3 0.0
18/05:00am 11.1 5.1 -3.0 37 5.4 NW 19 22 10 12 1015.4 1015.4 0.0
18/04:30am 11.0 5.4 -3.1 37 5.4 NW 17 22 9 12 1015.2 1015.2 0.0
18/04:00am 11.1 5.1 -3.0 37 5.4 NW 19 26 10 14 1015.2 1015.2 0.0
18/03:30am 11.7 6.1 -2.9 36 5.6 NW 17 22 9 12 1015.2 1015.2 0.0
18/03:00am 12.1 5.9 -2.9 35 5.8 NW 20 28 11 15 1015.3 1015.3 0.0
18/02:30am 12.0 6.4 -3.0 35 5.8 NNW 17 24 9 13 1015.6 1015.6 0.0
18/02:00am 12.3 6.7 -2.7 35 5.9 NNW 17 22 9 12 1015.8 1015.8 0.0
18/01:30am 12.8 6.9 -2.3 35 6.0 NW 19 24 10 13 1016.2 1016.2 0.0
18/01:00am 12.9 8.1 -2.2 35 6.0 NW 13 19 7 10 1016.3 1016.3 0.0
18/12:30am 12.3 6.8 -2.3 36 5.8 NW 17 20 9 11 1016.4 1016.4 0.0
18/12:00am 12.4 7.6 -2.2 36 5.8 NW 13 17 7 9 1016.5 1016.5 0.0
 
Date/Time
EST
Temp
°C
App
Temp
°C
Dew
Point
°C
Rel
Hum
%
Delta-T
°C
Wind Press
QNH
hPa
Press
MSL
hPa
Rain since
9am
mm
Dir  Spd
km/h
Gust
km/h
Spd
kts
Gust
kts
17/11:30pm 12.1 7.7 -2.1 37 5.6 NW 11 17 6 9 1016.5 1016.5 0.0
17/11:00pm 11.8 7.8 -2.0 38 5.4 NW 9 11 5 6 1016.5 1016.5 0.0
17/10:30pm 12.6 8.2 -2.1 36 5.8 NW 11 13 6 7 1016.7 1016.7 0.0
17/10:00pm 13.0 8.6 -2.1 35 6.0 NW 11 15 6 8 1016.8 1016.8 0.0
17/09:30pm 12.0 8.0 -2.6 36 5.7 NW 9 11 5 6 1016.4 1016.4 0.0
17/09:00pm 11.8 8.1 -3.1 35 5.7 NW 7 9 4 5 1016.4 1016.4 0.0
17/08:30pm 13.4 9.9 -1.7 35 6.1 NNW 7 9 4 5 1016.0 1016.0 0.0
17/08:00pm 13.9 10.0 -1.7 34 6.3 NW 9 11 5 6 1016.0 1016.0 0.0
17/07:30pm 14.5 10.5 -2.0 32 6.7 NW 9 11 5 6 1015.7 1015.7 0.0
17/07:00pm 15.9 12.0 -1.6 30 7.3 NW 9 11 5 6 1015.5 1015.5 0.0
17/06:30pm 16.9 12.7 -1.2 29 7.7 NW 11 15 6 8 1015.2 1015.2 0.0
17/06:00pm 17.9 12.6 -0.8 28 8.0 NW 17 20 9 11 1014.9 1015.0 0.0
17/05:30pm 18.6 13.3 -0.7 27 8.4 NW 17 26 9 14 1014.9 1015.0 0.0
17/05:00pm 19.0 13.1 -0.9 26 8.6 W 20 28 11 15 1015.1 1015.1 0.0
17/04:30pm 19.5 13.8 -1.0 25 8.9 WNW 19 26 10 14 1014.9 1015.0 0.0
17/04:00pm 19.5 15.0 -0.5 26 8.8 WNW 13 24 7 13 1014.8 1014.9 0.0
17/03:30pm 19.6 15.5 -0.4 26 8.8 NW 11 20 6 11 1014.8 1014.9 0.0
17/03:00pm 18.9 13.6 -0.5 27 8.5 W 17 22 9 12 1015.2 1015.2 0.0
17/02:30pm 19.0 13.7 -0.4 27 8.5 W 17 24 9 13 1015.6 1015.6 0.0
17/02:00pm 18.8 15.1 -0.1 28 8.3 WNW 9 19 5 10 1015.9 1015.9 0.0
17/01:30pm 19.0 14.3 0.6 29 8.2 W 15 20 8 11 1016.3 1016.3 0.0
17/01:00pm 18.0 13.5 -0.3 29 8.0 WNW 13 22 7 12 1017.1 1017.1 0.0
17/12:30pm 17.2 12.8 0.4 32 7.4 NW 13 22 7 12 1017.6 1017.6 0.0
17/12:00pm 17.0 13.0 0.6 33 7.2 NNE 11 19 6 10 1018.0 1018.0 0.0
17/11:30am 15.8 12.6 0.8 36 6.6 NE 7 13 4 7 1018.4 1018.4 0.0
17/11:00am 15.9 12.4 1.2 37 6.5 NE 9 13 5 7 1018.8 1018.8 0.0
17/10:30am 14.4 10.6 1.7 42 5.6 ENE 11 13 6 7 1018.8 1018.8 0.0
17/10:00am 13.0 9.2 2.0 47 4.8 ENE 11 13 6 7 1018.8 1018.8 0.0
17/09:30am 11.6 8.1 1.5 50 4.3 ENE 9 13 5 7 1019.0 1019.0 0.0
17/09:00am 10.4 6.8 0.7 51 4.0 ENE 9 11 5 6 1019.0 1019.0 0.0
17/08:30am 9.4 7.3 -0.5 50 3.9 CALM 0 0 0 0 1018.9 1018.9 0.0
17/08:00am 6.3 2.9 -1.8 56 3.0 NE 6 7 3 4 1018.8 1018.8 0.0
17/07:30am 4.3 0.8 -3.2 58 2.6 N 6 9 3 5 1018.4 1018.4 0.0
17/07:00am 4.5 1.1 -1.9 63 2.3 NW 6 7 3 4 1018.0 1018.0 0.0
17/06:30am 4.6 0.9 -2.5 60 2.5 W 7 9 4 5 1017.8 1017.8 0.0
17/06:00am 4.8 1.4 -2.3 60 2.6 W 6 9 3 5 1017.5 1017.5 0.0
17/05:30am 5.1 1.1 -2.5 58 2.7 WSW 9 13 5 7 1017.4 1017.4 0.0
17/05:00am 4.4 0.7 -3.1 58 2.6 WSW 7 9 4 5 1016.8 1016.8 0.0
17/04:30am 4.2 0.4 -3.8 56 2.8 W 7 9 4 5 1016.8 1016.8 0.0
17/04:00am 4.7 1.0 -3.3 56 2.8 WSW 7 9 4 5 1016.7 1016.7 0.0
17/03:30am 4.9 1.7 -3.4 55 2.9 WNW 4 6 2 3 1016.9 1016.9 0.0
17/03:00am 5.7 2.6 -2.4 56 3.0 W 4 7 2 4 1017.0 1017.0 0.0
17/02:30am 5.3 1.7 -4.0 51 3.2 W 6 7 3 4 1017.1 1017.1 0.0
17/02:00am 5.7 2.0 -3.1 53 3.1 WNW 7 9 4 5 1017.2 1017.2 0.0
17/01:30am 6.0 2.4 -3.4 51 3.4 NW 6 7 3 4 1017.0 1017.0 0.0
17/01:00am 6.6 3.9 -2.8 51 3.4 SSW 2 6 1 3 1016.9 1016.9 0.0
17/12:30am 7.0 3.6 -2.4 51 3.5 W 6 11 3 6 1017.1 1017.1 0.0
17/12:00am 7.5 4.1 -1.7 52 3.5 NW 6 7 3 4 1017.0 1017.0 0.0
 
Date/Time
EST
Temp
°C
App
Temp
°C
Dew
Point
°C
Rel
Hum
%
Delta-T
°C
Wind Press
QNH
hPa
Press
MSL
hPa
Rain since
9am
mm
Dir  Spd
km/h
Gust
km/h
Spd
kts
Gust
kts
16/11:30pm 7.9 5.7 -1.6 51 3.6 CALM 0 0 0 0 1016.9 1016.9 0.0
16/11:00pm 8.3 6.0 -2.0 48 3.9 CALM 0 0 0 0 1016.9 1016.9 0.0
16/10:30pm 9.0 6.7 -2.3 45 4.3 CALM 0 0 0 0 1017.0 1017.0 0.0
16/10:00pm 9.8 7.6 -1.3 46 4.4 CALM 0 0 0 0 1016.9 1016.9 0.0
16/09:30pm 10.6 6.4 -0.8 45 4.6 WSW 11 13 6 7 1016.9 1016.9 0.0
16/09:00pm 10.9 6.7 -0.9 44 4.7 WSW 11 13 6 7 1016.7 1016.7 0.0
16/08:30pm 11.4 7.6 -1.0 42 5.0 WSW 9 11 5 6 1016.7 1016.7 0.0
16/08:00pm 12.5 8.7 -0.7 40 5.4 SW 9 11 5 6 1016.5 1016.5 0.0
16/07:30pm 13.5 9.8 -0.2 39 5.7 SW 9 11 5 6 1016.3 1016.3 0.0
16/07:00pm 14.8 10.3 -0.1 36 6.3 WSW 13 15 7 8 1016.1 1016.1 0.0
16/06:30pm 15.5 11.1 0.1 35 6.6 SW 13 17 7 9 1015.8 1015.8 0.0
16/06:00pm 16.5 11.3 0.2 33 7.1 WSW 17 22 9 12 1015.5 1015.5 0.0
16/05:30pm 17.4 11.6 0.1 31 7.6 W 20 24 11 13 1015.2 1015.2 0.0
16/05:00pm 17.9 12.1 0.1 30 7.8 WSW 20 28 11 15 1015.2 1015.2 0.0
16/04:30pm 18.2 12.0 -0.1 29 8.0 WSW 22 32 12 17 1015.2 1015.2 0.0
16/04:00pm 18.5 13.2 -0.8 27 8.3 WSW 17 28 9 15 1015.2 1015.2 0.0
16/03:30pm 18.5 13.2 -0.3 28 8.2 W 17 24 9 13 1015.4 1015.4 0.0
16/03:00pm 18.8 14.4 0.4 29 8.2 WSW 13 26 7 14 1015.4 1015.4 0.0
16/02:30pm 18.5 13.5 1.1 31 7.8 WSW 17 26 9 14 1015.6 1015.6 0.0
16/02:00pm 18.2 13.5 0.8 31 7.8 W 15 28 8 15 1015.8 1015.8 0.0
16/01:30pm 18.1 14.3 1.6 33 7.5 WNW 11 28 6 15 1016.2 1016.2 0.0
16/01:00pm 17.5 13.4 2.3 36 6.9 WSW 13 20 7 11 1016.9 1016.9 0.0
16/12:30pm 16.9 13.0 3.2 40 6.4 SW 13 22 7 12 1017.5 1017.5 0.0
16/12:00pm 16.5 13.8 3.6 42 6.0 SW 7 15 4 8 1017.8 1017.8 0.0
16/11:30am 16.4 13.0 4.1 44 5.8 S 11 17 6 9 1018.3 1018.3 0.0
16/11:00am 15.1 11.3 3.9 47 5.2 SW 13 20 7 11 1018.6 1018.6 0.0
16/10:30am 14.8 10.9 3.3 46 5.3 SSW 13 20 7 11 1018.6 1018.6 0.0
16/10:00am 14.3 10.5 3.7 49 4.9 S 13 19 7 10 1018.7 1018.7 0.0
16/09:30am 13.7 10.5 5.3 57 4.0 S 11 15 6 8 1019.0 1019.0 0.0
16/09:00am 13.1 10.1 5.8 61 3.5 SE 11 13 6 7 1018.9 1018.9 -
16/08:30am 12.4 8.9 5.6 63 3.2 SE 13 17 7 9 1018.5 1018.5 -
16/08:00am 12.3 9.7 5.9 65 3.0 SSE 9 13 5 7 1018.4 1018.4 -
16/07:30am 11.6 9.3 5.9 68 2.7 SE 7 9 4 5 1017.9 1017.9 -
16/07:00am 12.0 9.1 6.3 68 2.7 SE 11 15 6 8 1017.6 1017.6 -
16/06:30am 12.6 9.6 6.0 64 3.1 SE 11 15 6 8 1017.2 1017.2 -
16/06:00am 13.2 10.3 6.3 63 3.3 SSE 11 15 6 8 1016.8 1016.8 -
16/05:30am 13.6 10.3 6.2 61 3.6 SSE 13 17 7 9 1016.6 1016.6 -
16/05:00am 13.9 9.4 6.3 60 3.7 S 19 24 10 13 1016.4 1016.4 -
16/04:30am 14.1 8.3 6.2 59 3.8 S 26 33 14 18 1016.1 1016.1 0.0
16/04:00am 14.6 9.9 6.2 57 4.1 SSE 20 30 11 16 1015.9 1015.9 0.0
16/03:30am 15.5 10.9 5.4 51 4.9 S 19 28 10 15 1015.8 1015.8 0.0
16/03:00am 15.9 12.0 5.2 49 5.1 SSW 15 19 8 10 1015.5 1015.5 0.0
16/02:30am 16.1 11.3 4.8 47 5.4 SSW 19 22 10 12 1015.5 1015.5 0.0
16/02:00am 16.5 11.8 5.2 47 5.4 SSW 19 24 10 13 1015.5 1015.5 0.0
16/01:30am 16.7 13.1 5.0 46 5.6 SSW 13 19 7 10 1015.7 1015.7 0.0
16/01:00am 16.6 13.1 3.3 41 6.2 SSW 11 13 6 7 1015.6 1015.6 0.0
16/12:30am 16.7 12.9 1.6 36 6.8 SW 11 15 6 8 1015.5 1015.5 0.0
16/12:00am 17.2 13.0 1.6 35 7.0 SSW 13 15 7 8 1015.3 1015.3 0.0
 
Date/Time
EST
Temp
°C
App
Temp
°C
Dew
Point
°C
Rel
Hum
%
Delta-T
°C
Wind Press
QNH
hPa
Press
MSL
hPa
Rain since
9am
mm
Dir  Spd
km/h
Gust
km/h
Spd
kts
Gust
kts
15/11:30pm 17.5 13.1 0.6 32 7.5 SW 13 17 7 9 1015.3 1015.3 0.0
15/11:00pm 18.3 13.5 0.4 30 7.9 SW 15 20 8 11 1015.1 1015.1 0.0
15/10:30pm 18.9 12.9 -3.3 22 9.2 SW 19 24 10 13 1014.9 1015.0 0.0
15/10:00pm 18.4 12.7 -3.7 22 9.0 WNW 17 20 9 11 1014.7 1014.8 0.0
15/09:30pm 18.8 13.8 -4.0 21 9.3 NW 13 20 7 11 1014.2 1014.2 0.0
15/09:00pm 19.2 14.2 -4.3 20 9.5 NNW 13 15 7 8 1014.2 1014.2 0.0
15/08:30pm 19.4 14.8 -4.1 20 9.6 NNW 11 17 6 9 1013.9 1013.9 0.0
15/08:00pm 20.2 15.6 -4.1 19 10.0 NNW 11 15 6 8 1013.8 1013.8 0.0
15/07:30pm 21.2 15.5 -4.0 18 10.5 NW 17 26 9 14 1013.6 1013.6 0.0
15/07:00pm 21.2 15.9 -4.0 18 10.5 NW 15 20 8 11 1013.5 1013.5 0.0
15/06:30pm 21.9 15.8 -4.2 17 10.9 NW 19 26 10 14 1013.4 1013.4 0.0
15/06:00pm 22.5 16.1 -4.5 16 11.3 WNW 20 28 11 15 1013.2 1013.2 0.0
15/05:30pm 23.3 16.2 -4.8 15 11.7 WNW 24 33 13 18 1013.3 1013.3 0.0
15/05:00pm 23.8 15.6 -4.4 15 11.9 WNW 30 41 16 22 1013.2 1013.2 0.0
15/04:30pm 24.1 16.7 -3.3 16 11.9 WNW 26 35 14 19 1013.3 1013.3 0.0
15/04:00pm 24.1 16.4 -3.3 16 11.9 NW 28 43 15 23 1013.3 1013.3 0.0
15/03:30pm 24.4 16.2 -3.9 15 12.1 WNW 30 44 16 24 1013.5 1013.5 0.0
15/03:00pm 23.5 15.4 -2.9 17 11.5 WNW 30 43 16 23 1013.8 1013.8 0.0
15/02:34pm 24.2 16.5 -3.2 16 11.9 WNW 28 46 15 25 1014.2 1014.2 0.0
15/02:30pm 23.3 15.2 -3.1 17 11.4 NW 30 46 16 25 1014.2 1014.2 0.0
15/02:00pm 23.4 15.7 -3.0 17 11.4 NW 28 39 15 21 1014.5 1014.6 0.0
15/01:30pm 22.9 15.2 -2.6 18 11.1 NW 28 44 15 24 1015.2 1015.2 0.0
15/01:01pm 22.6 14.1 -2.9 18 11.0 NW 32 50 17 27 1015.4 1015.4 0.0
15/01:00pm 22.4 13.7 -3.1 18 10.9 NW 33 50 18 27 1015.4 1015.4 0.0
15/12:52pm 21.9 13.5 -2.7 19 10.6 NW 32 50 17 27 1015.4 1015.4 0.0
15/12:30pm 22.0 13.7 -2.0 20 10.5 NW 32 44 17 24 1015.8 1015.8 0.0
15/12:00pm 21.0 12.2 -1.5 22 9.8 NW 35 50 19 27 1016.4 1016.4 0.0
15/11:30am 20.3 11.1 -1.5 23 9.5 NW 37 46 20 25 1016.6 1016.6 0.0
15/11:00am 19.6 10.5 -0.9 25 8.9 NW 37 52 20 28 1017.1 1017.1 0.0
15/10:30am 18.9 10.8 -0.5 27 8.5 NW 32 46 17 25 1017.6 1017.6 0.0
15/10:00am 18.0 10.3 0.2 30 7.8 NW 30 41 16 22 1017.9 1017.9 0.0
15/09:30am 16.1 8.8 -0.2 33 7.0 NW 28 37 15 20 1018.1 1018.1 0.0
15/09:00am 14.4 7.1 -0.1 37 6.1 NW 28 43 15 23 1018.1 1018.1 0.0
15/08:30am 12.7 5.9 0.5 43 5.1 NW 26 35 14 19 1018.0 1018.0 -
15/08:00am 10.3 4.7 0.1 49 4.2 NW 19 26 10 14 1018.1 1018.1 -

Other Formats:

Comma delimited format used in spreadsheet applications
http://www.bom.gov.au/fwo/IDN60801/IDN60801.94686.axf

JavaScript Object Notation format (JSON) in row-major order
http://www.bom.gov.au/fwo/IDN60801/IDN60801.94686.json